sensor_id;sensor_type;location;lat;lon;timestamp;temperature;humidity
78733;DHT22;68056;52.530;5.454;2023-04-01T00:00:19;10.70;76.10
78733;DHT22;68056;52.530;5.454;2023-04-01T00:02:45;10.70;76.00
78733;DHT22;68056;52.530;5.454;2023-04-01T00:05:11;10.70;76.10
78733;DHT22;68056;52.530;5.454;2023-04-01T00:07:38;10.70;76.10
78733;DHT22;68056;52.530;5.454;2023-04-01T00:10:08;10.70;76.10
78733;DHT22;68056;52.530;5.454;2023-04-01T00:12:34;10.70;76.00
78733;DHT22;68056;52.530;5.454;2023-04-01T00:15:01;10.70;76.00
78733;DHT22;68056;52.530;5.454;2023-04-01T00:17:27;10.70;76.00
78733;DHT22;68056;52.530;5.454;2023-04-01T00:19:55;10.70;76.00
78733;DHT22;68056;52.530;5.454;2023-04-01T00:22:21;10.70;76.10
78733;DHT22;68056;52.530;5.454;2023-04-01T00:24:47;10.70;76.00
78733;DHT22;68056;52.530;5.454;2023-04-01T00:27:13;10.70;76.10
78733;DHT22;68056;52.530;5.454;2023-04-01T00:29:45;10.80;76.00
78733;DHT22;68056;52.530;5.454;2023-04-01T00:32:11;10.80;76.00
78733;DHT22;68056;52.530;5.454;2023-04-01T00:34:40;10.80;76.00
78733;DHT22;68056;52.530;5.454;2023-04-01T00:37:07;10.70;76.00
78733;DHT22;68056;52.530;5.454;2023-04-01T00:39:35;10.70;76.10
78733;DHT22;68056;52.530;5.454;2023-04-01T00:42:03;10.70;76.00
78733;DHT22;68056;52.530;5.454;2023-04-01T00:44:40;10.70;76.10
78733;DHT22;68056;52.530;5.454;2023-04-01T00:47:06;10.70;76.00
78733;DHT22;68056;52.530;5.454;2023-04-01T00:49:40;10.70;76.00
78733;DHT22;68056;52.530;5.454;2023-04-01T00:52:09;10.70;76.10
78733;DHT22;68056;52.530;5.454;2023-04-01T00:54:37;10.70;76.00
78733;DHT22;68056;52.530;5.454;2023-04-01T00:59:54;10.70;76.00
78733;DHT22;68056;52.530;5.454;2023-04-01T01:02:21;10.70;76.00
78733;DHT22;68056;52.530;5.454;2023-04-01T01:04:47;10.70;76.00
78733;DHT22;68056;52.530;5.454;2023-04-01T01:18:11;10.60;75.90
78733;DHT22;68056;52.530;5.454;2023-04-01T01:20:48;10.50;75.90
78733;DHT22;68056;52.530;5.454;2023-04-01T01:31:59;10.40;75.80
78733;DHT22;68056;52.530;5.454;2023-04-01T01:37:20;10.40;75.80
78733;DHT22;68056;52.530;5.454;2023-04-01T01:39:55;10.40;75.80
78733;DHT22;68056;52.530;5.454;2023-04-01T01:42:23;10.40;75.80
78733;DHT22;68056;52.530;5.454;2023-04-01T01:44:51;10.40;75.90
78733;DHT22;68056;52.530;5.454;2023-04-01T01:47:19;10.40;75.90
78733;DHT22;68056;52.530;5.454;2023-04-01T01:49:45;10.40;75.80
78733;DHT22;68056;52.530;5.454;2023-04-01T01:52:12;10.40;75.90
78733;DHT22;68056;52.530;5.454;2023-04-01T01:54:48;10.40;75.90
78733;DHT22;68056;52.530;5.454;2023-04-01T01:57:14;10.40;75.90
78733;DHT22;68056;52.530;5.454;2023-04-01T01:59:43;10.40;75.90
78733;DHT22;68056;52.530;5.454;2023-04-01T02:02:10;10.40;75.90
78733;DHT22;68056;52.530;5.454;2023-04-01T02:04:40;10.40;75.90
78733;DHT22;68056;52.530;5.454;2023-04-01T02:07:14;10.40;75.90
78733;DHT22;68056;52.530;5.454;2023-04-01T02:09:41;10.40;75.90
78733;DHT22;68056;52.530;5.454;2023-04-01T02:12:10;10.40;75.90
78733;DHT22;68056;52.530;5.454;2023-04-01T02:14:49;10.40;75.90
78733;DHT22;68056;52.530;5.454;2023-04-01T02:17:19;10.40;75.90
78733;DHT22;68056;52.530;5.454;2023-04-01T02:20:08;10.40;75.90
78733;DHT22;68056;52.530;5.454;2023-04-01T02:22:38;10.40;75.80
78733;DHT22;68056;52.530;5.454;2023-04-01T02:25:13;10.40;75.70
78733;DHT22;68056;52.530;5.454;2023-04-01T02:27:40;10.40;75.70
78733;DHT22;68056;52.530;5.454;2023-04-01T02:30:08;10.50;75.70
78733;DHT22;68056;52.530;5.454;2023-04-01T02:32:36;10.50;75.80
78733;DHT22;68056;52.530;5.454;2023-04-01T02:35:06;10.50;75.70
78733;DHT22;68056;52.530;5.454;2023-04-01T02:37:32;10.50;75.70
78733;DHT22;68056;52.530;5.454;2023-04-01T02:40:03;10.50;75.70
78733;DHT22;68056;52.530;5.454;2023-04-01T02:42:30;10.50;75.70
78733;DHT22;68056;52.530;5.454;2023-04-01T02:44:55;10.50;75.70
78733;DHT22;68056;52.530;5.454;2023-04-01T02:47:21;10.40;75.70
78733;DHT22;68056;52.530;5.454;2023-04-01T02:49:46;10.40;75.80
78733;DHT22;68056;52.530;5.454;2023-04-01T02:52:13;10.50;75.70
78733;DHT22;68056;52.530;5.454;2023-04-01T02:54:39;10.50;75.70
78733;DHT22;68056;52.530;5.454;2023-04-01T02:57:04;10.50;75.70
78733;DHT22;68056;52.530;5.454;2023-04-01T02:59:30;10.50;75.70
78733;DHT22;68056;52.530;5.454;2023-04-01T03:01:56;10.50;75.70
78733;DHT22;68056;52.530;5.454;2023-04-01T03:04:21;10.50;75.70
78733;DHT22;68056;52.530;5.454;2023-04-01T03:06:47;10.50;75.70
78733;DHT22;68056;52.530;5.454;2023-04-01T03:09:12;10.50;75.70
78733;DHT22;68056;52.530;5.454;2023-04-01T03:11:38;10.40;75.70
78733;DHT22;68056;52.530;5.454;2023-04-01T03:14:03;10.40;75.60
78733;DHT22;68056;52.530;5.454;2023-04-01T03:16:29;10.40;75.70
78733;DHT22;68056;52.530;5.454;2023-04-01T03:18:55;10.40;75.70
78733;DHT22;68056;52.530;5.454;2023-04-01T03:21:24;10.40;75.60
78733;DHT22;68056;52.530;5.454;2023-04-01T03:23:51;10.40;75.60
78733;DHT22;68056;52.530;5.454;2023-04-01T03:26:17;10.40;75.60
78733;DHT22;68056;52.530;5.454;2023-04-01T03:28:43;10.40;75.60
78733;DHT22;68056;52.530;5.454;2023-04-01T03:31:09;10.40;75.60
78733;DHT22;68056;52.530;5.454;2023-04-01T03:33:35;10.40;75.60
78733;DHT22;68056;52.530;5.454;2023-04-01T03:36:04;10.40;75.60
78733;DHT22;68056;52.530;5.454;2023-04-01T03:38:33;10.40;75.60
78733;DHT22;68056;52.530;5.454;2023-04-01T03:40:58;10.40;75.50
78733;DHT22;68056;52.530;5.454;2023-04-01T03:43:24;10.40;75.60
78733;DHT22;68056;52.530;5.454;2023-04-01T03:45:51;10.50;75.50
78733;DHT22;68056;52.530;5.454;2023-04-01T03:48:17;10.50;75.50
78733;DHT22;68056;52.530;5.454;2023-04-01T03:50:42;10.50;75.50
78733;DHT22;68056;52.530;5.454;2023-04-01T03:53:08;10.50;75.50
78733;DHT22;68056;52.530;5.454;2023-04-01T03:55:36;10.50;75.50
78733;DHT22;68056;52.530;5.454;2023-04-01T03:58:02;10.50;75.50
78733;DHT22;68056;52.530;5.454;2023-04-01T04:00:29;10.50;75.50
78733;DHT22;68056;52.530;5.454;2023-04-01T04:02:55;10.50;75.50
78733;DHT22;68056;52.530;5.454;2023-04-01T04:05:22;10.50;75.50
78733;DHT22;68056;52.530;5.454;2023-04-01T04:07:48;10.50;75.50
78733;DHT22;68056;52.530;5.454;2023-04-01T04:10:13;10.50;75.50
78733;DHT22;68056;52.530;5.454;2023-04-01T04:12:39;10.50;75.50
78733;DHT22;68056;52.530;5.454;2023-04-01T04:15:06;10.50;75.50
78733;DHT22;68056;52.530;5.454;2023-04-01T04:17:31;10.50;75.50
78733;DHT22;68056;52.530;5.454;2023-04-01T04:19:57;10.50;75.50
78733;DHT22;68056;52.530;5.454;2023-04-01T04:22:23;10.50;75.50
78733;DHT22;68056;52.530;5.454;2023-04-01T04:24:48;10.50;75.60
78733;DHT22;68056;52.530;5.454;2023-04-01T04:27:14;10.50;75.60
78733;DHT22;68056;52.530;5.454;2023-04-01T04:29:40;10.50;75.60
78733;DHT22;68056;52.530;5.454;2023-04-01T04:32:06;10.50;75.60
78733;DHT22;68056;52.530;5.454;2023-04-01T04:34:32;10.50;75.60
78733;DHT22;68056;52.530;5.454;2023-04-01T04:36:58;10.50;75.60
78733;DHT22;68056;52.530;5.454;2023-04-01T04:39:23;10.50;75.60
78733;DHT22;68056;52.530;5.454;2023-04-01T04:41:49;10.50;75.60
78733;DHT22;68056;52.530;5.454;2023-04-01T04:44:15;10.50;75.60
78733;DHT22;68056;52.530;5.454;2023-04-01T04:46:41;10.50;75.70
78733;DHT22;68056;52.530;5.454;2023-04-01T04:49:06;10.50;75.70
78733;DHT22;68056;52.530;5.454;2023-04-01T04:51:32;10.50;75.70
78733;DHT22;68056;52.530;5.454;2023-04-01T04:54:02;10.50;75.70
78733;DHT22;68056;52.530;5.454;2023-04-01T04:56:28;10.50;75.70
78733;DHT22;68056;52.530;5.454;2023-04-01T04:58:54;10.50;75.80
78733;DHT22;68056;52.530;5.454;2023-04-01T05:01:20;10.40;75.80
78733;DHT22;68056;52.530;5.454;2023-04-01T05:03:46;10.50;75.80
78733;DHT22;68056;52.530;5.454;2023-04-01T05:06:13;10.50;75.80
78733;DHT22;68056;52.530;5.454;2023-04-01T05:08:39;10.50;75.80
78733;DHT22;68056;52.530;5.454;2023-04-01T05:11:07;10.50;75.80
78733;DHT22;68056;52.530;5.454;2023-04-01T05:13:35;10.50;75.80
78733;DHT22;68056;52.530;5.454;2023-04-01T05:16:01;10.50;75.80
78733;DHT22;68056;52.530;5.454;2023-04-01T05:18:27;10.50;75.90
78733;DHT22;68056;52.530;5.454;2023-04-01T05:20:53;10.50;75.90
78733;DHT22;68056;52.530;5.454;2023-04-01T05:23:21;10.50;75.90
78733;DHT22;68056;52.530;5.454;2023-04-01T05:25:49;10.50;75.90
78733;DHT22;68056;52.530;5.454;2023-04-01T05:28:16;10.50;75.90
78733;DHT22;68056;52.530;5.454;2023-04-01T05:30:43;10.50;75.90
78733;DHT22;68056;52.530;5.454;2023-04-01T05:33:11;10.40;75.90
78733;DHT22;68056;52.530;5.454;2023-04-01T05:35:36;10.40;75.90
78733;DHT22;68056;52.530;5.454;2023-04-01T05:38:03;10.40;75.90
78733;DHT22;68056;52.530;5.454;2023-04-01T05:40:29;10.40;75.90
78733;DHT22;68056;52.530;5.454;2023-04-01T05:42:54;10.40;76.00
78733;DHT22;68056;52.530;5.454;2023-04-01T05:45:20;10.40;76.00
78733;DHT22;68056;52.530;5.454;2023-04-01T05:47:46;10.40;75.90
78733;DHT22;68056;52.530;5.454;2023-04-01T05:50:12;10.40;76.00
78733;DHT22;68056;52.530;5.454;2023-04-01T05:52:38;10.40;76.00
78733;DHT22;68056;52.530;5.454;2023-04-01T05:55:04;10.40;75.90
78733;DHT22;68056;52.530;5.454;2023-04-01T05:57:30;10.40;76.00
78733;DHT22;68056;52.530;5.454;2023-04-01T05:59:55;10.30;76.10
78733;DHT22;68056;52.530;5.454;2023-04-01T06:02:21;10.40;76.00
78733;DHT22;68056;52.530;5.454;2023-04-01T06:04:47;10.30;76.10
78733;DHT22;68056;52.530;5.454;2023-04-01T06:07:13;10.40;76.10
78733;DHT22;68056;52.530;5.454;2023-04-01T06:09:39;10.30;76.10
78733;DHT22;68056;52.530;5.454;2023-04-01T06:12:37;10.30;76.00
78733;DHT22;68056;52.530;5.454;2023-04-01T06:15:36;10.30;76.10
78733;DHT22;68056;52.530;5.454;2023-04-01T06:23:58;10.40;76.00
78733;DHT22;68056;52.530;5.454;2023-04-01T06:26:43;10.40;75.90
78733;DHT22;68056;52.530;5.454;2023-04-01T06:48:24;10.50;75.90
78733;DHT22;68056;52.530;5.454;2023-04-01T06:51:18;10.50;75.90
78733;DHT22;68056;52.530;5.454;2023-04-01T06:54:10;10.50;75.90
78733;DHT22;68056;52.530;5.454;2023-04-01T06:56:37;10.50;75.90
78733;DHT22;68056;52.530;5.454;2023-04-01T06:59:12;10.50;75.90
78733;DHT22;68056;52.530;5.454;2023-04-01T07:01:54;10.50;75.90
78733;DHT22;68056;52.530;5.454;2023-04-01T07:04:31;10.50;75.80
78733;DHT22;68056;52.530;5.454;2023-04-01T07:07:13;10.60;75.80
78733;DHT22;68056;52.530;5.454;2023-04-01T07:09:43;10.60;75.80
78733;DHT22;68056;52.530;5.454;2023-04-01T07:12:18;10.60;75.80
78733;DHT22;68056;52.530;5.454;2023-04-01T07:14:48;10.60;75.80
78733;DHT22;68056;52.530;5.454;2023-04-01T07:17:25;10.70;75.80
78733;DHT22;68056;52.530;5.454;2023-04-01T07:20:03;10.70;75.80
78733;DHT22;68056;52.530;5.454;2023-04-01T07:22:49;10.80;75.80
78733;DHT22;68056;52.530;5.454;2023-04-01T07:25:18;10.80;75.80
78733;DHT22;68056;52.530;5.454;2023-04-01T07:27:46;10.80;75.80
78733;DHT22;68056;52.530;5.454;2023-04-01T07:30:22;10.80;75.80
78733;DHT22;68056;52.530;5.454;2023-04-01T07:32:56;10.80;75.80
78733;DHT22;68056;52.530;5.454;2023-04-01T07:38:30;10.80;75.80
78733;DHT22;68056;52.530;5.454;2023-04-01T07:41:23;10.80;75.90
78733;DHT22;68056;52.530;5.454;2023-04-01T07:49:36;10.80;75.90
78733;DHT22;68056;52.530;5.454;2023-04-01T07:52:31;10.90;75.90
78733;DHT22;68056;52.530;5.454;2023-04-01T08:00:47;10.90;75.80
78733;DHT22;68056;52.530;5.454;2023-04-01T08:03:34;10.90;75.90
78733;DHT22;68056;52.530;5.454;2023-04-01T08:06:22;10.90;75.90
78733;DHT22;68056;52.530;5.454;2023-04-01T08:12:16;11.00;75.80
78733;DHT22;68056;52.530;5.454;2023-04-01T08:20:29;11.30;75.70
78733;DHT22;68056;52.530;5.454;2023-04-01T08:31:31;11.90;75.00
78733;DHT22;68056;52.530;5.454;2023-04-01T08:34:00;12.00;74.90
78733;DHT22;68056;52.530;5.454;2023-04-01T08:36:31;12.00;74.80
78733;DHT22;68056;52.530;5.454;2023-04-01T08:39:04;12.00;74.90
78733;DHT22;68056;52.530;5.454;2023-04-01T08:55:19;11.90;75.20
78733;DHT22;68056;52.530;5.454;2023-04-01T09:06:40;11.90;75.30
78733;DHT22;68056;52.530;5.454;2023-04-01T09:12:26;11.70;75.40
78733;DHT22;68056;52.530;5.454;2023-04-01T09:15:27;11.70;75.40
78733;DHT22;68056;52.530;5.454;2023-04-01T09:31:59;12.00;75.40
78733;DHT22;68056;52.530;5.454;2023-04-01T09:40:31;12.30;75.00
78733;DHT22;68056;52.530;5.454;2023-04-01T09:46:09;12.50;74.90
78733;DHT22;68056;52.530;5.454;2023-04-01T09:54:16;12.80;74.60
78733;DHT22;68056;52.530;5.454;2023-04-01T10:21:56;13.70;73.50
78733;DHT22;68056;52.530;5.454;2023-04-01T10:33:08;13.10;74.50
78733;DHT22;68056;52.530;5.454;2023-04-01T10:44:30;12.90;74.70
78733;DHT22;68056;52.530;5.454;2023-04-01T10:50:47;12.80;74.70
78733;DHT22;68056;52.530;5.454;2023-04-01T10:53:46;12.70;74.70
78733;DHT22;68056;52.530;5.454;2023-04-01T10:56:32;12.50;74.80
78733;DHT22;68056;52.530;5.454;2023-04-01T11:07:50;12.50;74.90
78733;DHT22;68056;52.530;5.454;2023-04-01T11:22:22;12.70;74.70
78733;DHT22;68056;52.530;5.454;2023-04-01T11:25:09;12.90;74.50
78733;DHT22;68056;52.530;5.454;2023-04-01T11:27:51;12.90;74.30
78733;DHT22;68056;52.530;5.454;2023-04-01T11:36:02;12.70;74.20
78733;DHT22;68056;52.530;5.454;2023-04-01T11:44:20;12.60;74.50
78733;DHT22;68056;52.530;5.454;2023-04-01T11:47:00;12.70;74.50
78733;DHT22;68056;52.530;5.454;2023-04-01T11:49:47;12.70;74.40
78733;DHT22;68056;52.530;5.454;2023-04-01T12:06:11;12.50;74.50
78733;DHT22;68056;52.530;5.454;2023-04-01T12:08:48;12.50;74.50
78733;DHT22;68056;52.530;5.454;2023-04-01T12:11:35;12.50;74.60
78733;DHT22;68056;52.530;5.454;2023-04-01T12:14:19;12.50;74.50
78733;DHT22;68056;52.530;5.454;2023-04-01T12:16:55;12.50;74.50
78733;DHT22;68056;52.530;5.454;2023-04-01T12:22:18;12.40;74.60
78733;DHT22;68056;52.530;5.454;2023-04-01T12:38:34;12.00;74.90
78733;DHT22;68056;52.530;5.454;2023-04-01T12:41:41;12.00;74.90
78733;DHT22;68056;52.530;5.454;2023-04-01T12:49:55;12.10;74.70
78733;DHT22;68056;52.530;5.454;2023-04-01T12:55:38;12.30;74.60
78733;DHT22;68056;52.530;5.454;2023-04-01T13:10:01;12.50;74.20
78733;DHT22;68056;52.530;5.454;2023-04-01T13:12:42;12.50;74.10
78733;DHT22;68056;52.530;5.454;2023-04-01T13:15:24;12.50;74.10
78733;DHT22;68056;52.530;5.454;2023-04-01T13:26:00;12.30;74.20
78733;DHT22;68056;52.530;5.454;2023-04-01T13:28:35;12.30;74.20
78733;DHT22;68056;52.530;5.454;2023-04-01T13:31:36;12.20;74.30
78733;DHT22;68056;52.530;5.454;2023-04-01T13:34:35;12.20;74.30
78733;DHT22;68056;52.530;5.454;2023-04-01T13:37:24;12.20;74.30
78733;DHT22;68056;52.530;5.454;2023-04-01T13:42:40;12.10;74.10
78733;DHT22;68056;52.530;5.454;2023-04-01T13:48:18;12.00;74.20
78733;DHT22;68056;52.530;5.454;2023-04-01T14:02:19;12.00;74.10
78733;DHT22;68056;52.530;5.454;2023-04-01T14:07:51;12.00;74.00
78733;DHT22;68056;52.530;5.454;2023-04-01T14:13:44;11.80;74.00
78733;DHT22;68056;52.530;5.454;2023-04-01T14:16:33;11.70;74.10
78733;DHT22;68056;52.530;5.454;2023-04-01T14:19:22;11.70;74.10
78733;DHT22;68056;52.530;5.454;2023-04-01T14:22:23;11.70;74.20
78733;DHT22;68056;52.530;5.454;2023-04-01T14:27:59;11.70;74.30
78733;DHT22;68056;52.530;5.454;2023-04-01T14:30:45;11.60;74.20
78733;DHT22;68056;52.530;5.454;2023-04-01T14:48:07;11.50;74.30
78733;DHT22;68056;52.530;5.454;2023-04-01T14:50:43;11.50;74.30
78733;DHT22;68056;52.530;5.454;2023-04-01T14:53:29;11.50;74.20
78733;DHT22;68056;52.530;5.454;2023-04-01T14:56:01;11.40;74.10
78733;DHT22;68056;52.530;5.454;2023-04-01T14:58:46;11.40;74.20
78733;DHT22;68056;52.530;5.454;2023-04-01T15:07:42;11.30;74.20
78733;DHT22;68056;52.530;5.454;2023-04-01T15:10:29;11.30;74.30
78733;DHT22;68056;52.530;5.454;2023-04-01T15:15:31;11.20;74.40
78733;DHT22;68056;52.530;5.454;2023-04-01T15:18:08;11.20;74.40
78733;DHT22;68056;52.530;5.454;2023-04-01T15:21:12;11.20;74.40
78733;DHT22;68056;52.530;5.454;2023-04-01T15:24:06;11.20;74.40
78733;DHT22;68056;52.530;5.454;2023-04-01T15:26:37;11.20;74.40
78733;DHT22;68056;52.530;5.454;2023-04-01T15:29:27;11.20;74.30
78733;DHT22;68056;52.530;5.454;2023-04-01T15:34:59;11.20;74.10
78733;DHT22;68056;52.530;5.454;2023-04-01T15:37:53;11.10;74.10
78733;DHT22;68056;52.530;5.454;2023-04-01T15:49:53;10.90;74.20
78733;DHT22;68056;52.530;5.454;2023-04-01T15:51:53;10.90;74.20
78733;DHT22;68056;52.530;5.454;2023-04-01T16:03:15;10.70;74.00
78733;DHT22;68056;52.530;5.454;2023-04-01T16:22:25;10.50;74.00
78733;DHT22;68056;52.530;5.454;2023-04-01T16:28:23;10.40;74.10
78733;DHT22;68056;52.530;5.454;2023-04-01T16:31:16;10.30;74.20
78733;DHT22;68056;52.530;5.454;2023-04-01T16:33:52;10.40;74.10
78733;DHT22;68056;52.530;5.454;2023-04-01T16:36:39;10.30;74.00
78733;DHT22;68056;52.530;5.454;2023-04-01T16:47:46;10.10;74.00
78733;DHT22;68056;52.530;5.454;2023-04-01T16:50:30;10.20;73.90
78733;DHT22;68056;52.530;5.454;2023-04-01T16:58:27;10.10;73.90
78733;DHT22;68056;52.530;5.454;2023-04-01T17:01:21;10.10;73.80
78733;DHT22;68056;52.530;5.454;2023-04-01T17:03:52;10.10;73.90
78733;DHT22;68056;52.530;5.454;2023-04-01T17:07:05;10.00;73.80
78733;DHT22;68056;52.530;5.454;2023-04-01T17:09:34;10.00;73.90
78733;DHT22;68056;52.530;5.454;2023-04-01T17:20:12;9.90;74.00
78733;DHT22;68056;52.530;5.454;2023-04-01T17:23:00;9.80;74.00
78733;DHT22;68056;52.530;5.454;2023-04-01T17:33:42;9.70;74.00
78733;DHT22;68056;52.530;5.454;2023-04-01T17:41:53;9.60;73.80
78733;DHT22;68056;52.530;5.454;2023-04-01T17:52:32;9.40;73.80
78733;DHT22;68056;52.530;5.454;2023-04-01T17:58:29;9.40;73.70
78733;DHT22;68056;52.530;5.454;2023-04-01T18:06:50;9.40;73.50
78733;DHT22;68056;52.530;5.454;2023-04-01T18:12:33;9.20;73.50
78733;DHT22;68056;52.530;5.454;2023-04-01T18:15:19;9.20;73.60
78733;DHT22;68056;52.530;5.454;2023-04-01T18:21:25;9.20;73.50
78733;DHT22;68056;52.530;5.454;2023-04-01T18:27:02;9.10;73.40
78733;DHT22;68056;52.530;5.454;2023-04-01T18:29:37;9.00;73.40
78733;DHT22;68056;52.530;5.454;2023-04-01T18:38:11;9.00;73.30
78733;DHT22;68056;52.530;5.454;2023-04-01T18:40:48;9.00;73.30
78733;DHT22;68056;52.530;5.454;2023-04-01T18:43:38;9.00;73.30
78733;DHT22;68056;52.530;5.454;2023-04-01T18:46:19;8.90;73.30
78733;DHT22;68056;52.530;5.454;2023-04-01T18:48:52;9.00;73.30
78733;DHT22;68056;52.530;5.454;2023-04-01T18:51:46;8.90;73.20
78733;DHT22;68056;52.530;5.454;2023-04-01T18:57:03;8.80;73.30
78733;DHT22;68056;52.530;5.454;2023-04-01T18:59:40;8.80;73.40
78733;DHT22;68056;52.530;5.454;2023-04-01T19:02:50;8.80;73.40
78733;DHT22;68056;52.530;5.454;2023-04-01T19:05:31;8.70;73.30
78733;DHT22;68056;52.530;5.454;2023-04-01T19:13:45;8.60;73.20
78733;DHT22;68056;52.530;5.454;2023-04-01T19:16:43;8.60;73.20
78733;DHT22;68056;52.530;5.454;2023-04-01T19:19:48;8.50;73.20
78733;DHT22;68056;52.530;5.454;2023-04-01T19:25:27;8.50;73.10
78733;DHT22;68056;52.530;5.454;2023-04-01T19:30:59;8.40;73.10
78733;DHT22;68056;52.530;5.454;2023-04-01T19:33:59;8.30;73.00
78733;DHT22;68056;52.530;5.454;2023-04-01T19:36:45;8.30;73.10
78733;DHT22;68056;52.530;5.454;2023-04-01T19:42:20;8.30;73.10
78733;DHT22;68056;52.530;5.454;2023-04-01T19:47:59;8.30;73.00
78733;DHT22;68056;52.530;5.454;2023-04-01T19:53:30;8.20;73.00
78733;DHT22;68056;52.530;5.454;2023-04-01T19:56:19;8.10;73.00
78733;DHT22;68056;52.530;5.454;2023-04-01T19:58:54;8.20;73.00
78733;DHT22;68056;52.530;5.454;2023-04-01T20:04:27;8.10;73.00
78733;DHT22;68056;52.530;5.454;2023-04-01T20:09:34;8.10;73.00
78733;DHT22;68056;52.530;5.454;2023-04-01T20:12:14;8.10;72.90
78733;DHT22;68056;52.530;5.454;2023-04-01T20:14:51;8.10;72.90
78733;DHT22;68056;52.530;5.454;2023-04-01T20:28:19;8.00;72.70
78733;DHT22;68056;52.530;5.454;2023-04-01T20:44:20;7.80;72.70
78733;DHT22;68056;52.530;5.454;2023-04-01T20:52:40;7.80;72.70
78733;DHT22;68056;52.530;5.454;2023-04-01T20:55:25;7.80;72.60
78733;DHT22;68056;52.530;5.454;2023-04-01T20:58:21;7.80;72.70
78733;DHT22;68056;52.530;5.454;2023-04-01T21:06:53;7.80;72.50
78733;DHT22;68056;52.530;5.454;2023-04-01T21:25:51;7.60;72.50
78733;DHT22;68056;52.530;5.454;2023-04-01T21:28:28;7.60;72.50
78733;DHT22;68056;52.530;5.454;2023-04-01T21:31:05;7.60;72.50
78733;DHT22;68056;52.530;5.454;2023-04-01T21:42:53;7.50;72.40
78733;DHT22;68056;52.530;5.454;2023-04-01T21:51:11;7.60;72.20
78733;DHT22;68056;52.530;5.454;2023-04-01T21:59:47;7.50;72.20
78733;DHT22;68056;52.530;5.454;2023-04-01T22:02:41;7.50;72.30
78733;DHT22;68056;52.530;5.454;2023-04-01T22:10:43;7.50;72.20
78733;DHT22;68056;52.530;5.454;2023-04-01T22:13:32;7.50;72.20
78733;DHT22;68056;52.530;5.454;2023-04-01T22:16:14;7.50;72.10
78733;DHT22;68056;52.530;5.454;2023-04-01T22:18:51;7.40;72.10
78733;DHT22;68056;52.530;5.454;2023-04-01T22:21:35;7.40;72.10
78733;DHT22;68056;52.530;5.454;2023-04-01T22:26:44;7.30;72.10
78733;DHT22;68056;52.530;5.454;2023-04-01T22:29:21;7.40;72.10
78733;DHT22;68056;52.530;5.454;2023-04-01T22:32:00;7.40;72.10
78733;DHT22;68056;52.530;5.454;2023-04-01T22:35:00;7.30;72.10
78733;DHT22;68056;52.530;5.454;2023-04-01T22:43:08;7.20;72.00
78733;DHT22;68056;52.530;5.454;2023-04-01T22:48:41;7.20;72.00
78733;DHT22;68056;52.530;5.454;2023-04-01T22:51:24;7.10;72.00
78733;DHT22;68056;52.530;5.454;2023-04-01T22:54:12;7.00;72.00
78733;DHT22;68056;52.530;5.454;2023-04-01T22:56:45;7.00;72.00
78733;DHT22;68056;52.530;5.454;2023-04-01T23:01:59;7.00;71.90
78733;DHT22;68056;52.530;5.454;2023-04-01T23:04:35;7.00;71.90
78733;DHT22;68056;52.530;5.454;2023-04-01T23:07:14;7.00;71.90
78733;DHT22;68056;52.530;5.454;2023-04-01T23:09:46;7.00;71.90
78733;DHT22;68056;52.530;5.454;2023-04-01T23:12:15;7.00;71.90
78733;DHT22;68056;52.530;5.454;2023-04-01T23:14:59;7.00;71.90
78733;DHT22;68056;52.530;5.454;2023-04-01T23:17:31;7.00;71.80
78733;DHT22;68056;52.530;5.454;2023-04-01T23:28:53;6.90;71.80
78733;DHT22;68056;52.530;5.454;2023-04-01T23:31:32;6.90;71.70
78733;DHT22;68056;52.530;5.454;2023-04-01T23:36:27;6.90;71.70
78733;DHT22;68056;52.530;5.454;2023-04-01T23:38:53;6.90;71.70
78733;DHT22;68056;52.530;5.454;2023-04-01T23:41:26;6.90;71.70
78733;DHT22;68056;52.530;5.454;2023-04-01T23:43:58;6.90;71.70
78733;DHT22;68056;52.530;5.454;2023-04-01T23:46:25;6.80;71.70
78733;DHT22;68056;52.530;5.454;2023-04-01T23:48:52;6.80;71.60
78733;DHT22;68056;52.530;5.454;2023-04-01T23:51:25;6.80;71.60
78733;DHT22;68056;52.530;5.454;2023-04-01T23:54:11;6.80;71.50
78733;DHT22;68056;52.530;5.454;2023-04-01T23:56:43;6.70;71.60
78733;DHT22;68056;52.530;5.454;2023-04-01T23:59:17;6.70;71.60
